Kralendijk, Bonaire, Sint Eustatius and Saba

8:18 AM AST on September 22, 2014 (GMT -0400)
Nikiboko | Change Station
CLOSE
Current Station
Personal Weather Station
Location: Bonaire, Bonaire
Elevation: 33 ft
Nearby Weather Stations

Elev 33 ft 12.15 °N, 68.27 °W | Updated 12 minutes ago

Scattered Clouds
Scattered Clouds
85.9 °F
Feels Like 99 °F
N
7.0
Wind Variable Wind from ESE
Gusts 9.0 mph

Today
High -- | Low -- °F
--% Chance of Precip.
Yesterday
High -- | Low -- °F
Precip. -- in
6:22 AM 6:29 PM
Waning Crescent, 3% visible
Pressure 29.89 in
Visibility 6.2 miles
Clouds Scattered Clouds 1700 ft
Heat Index 99 °F
Dew Point 78 °F
Humidity 78%
Rainfall 0.00 in
Snow Depth Not available.
UV 0 out of 12
Pollen Not available.
Air Quality Not available.
Flu Activity Not available.
METAR TNCB 221100Z AUTO 07006KT 9999 SCT017/// 27/25 Q1012 NOSIG

More Conditions Fewer Conditions

Pressure 29.89 in
Visibility 6.2 miles
Clouds Scattered Clouds 1700 ft
Heat Index 99 °F
Dew Point 78 °F
Humidity 78%
Rainfall 0.00 in
Snow Depth Not available.
UV 0 out of 12
Pollen Not available.
Air Quality Not available.
Flu Activity Not available.
METAR TNCB 221100Z AUTO 07006KT 9999 SCT017/// 27/25 Q1012 NOSIG

More Conditions Fewer Conditions

10-Day Weather Forecast

Almanac

Astronomy

Sep. 22, 2014 Rise Set
Actual Time 6:22 AM AST 6:29 PM AST
Civil Twilight 6:01 AM AST 6:50 PM AST
Nautical Twilight 5:36 AM AST 7:14 PM AST
Astronomical Twilight 5:11 AM AST 7:39 PM AST
Moon 4:59 AM AST 5:27 PM AST
Length of Visible Light 12h 49m
Length of Day
12h 06m
Tomorrow will be 0m 41s shorter.
Waning Crescent, 3% of the Moon is Illuminated
Today
Waning Crescent
Sep 24
New
Oct 1
First Quarter
Oct 8
Full
Oct 15
Last Quarter

Community

WunderPhotos

Upload Photos

1,755,417 photos uploaded!

WunderBlogs® & News

Nearby

Snow Depth

Not available.

Earthquake Activity

City Distance Mag. Time & Date
No recent earthquake activity has been reported nearby.
Minimum magnitude displayed is 2.5.

Coastal Water Temperatures

Place Temperature
No Stations Reporting

Nearby Weather Stations